METAR AND TAF INFORMATION
METAR FOR LIPE
ADDS - METARS form results

(2214 UTC 20 February 2020)
Data provider http://aviationweather.gov/metar/data/
 
METAR text: LIPE 202150Z 20005KT 150V210 CAVOK 05/M01 Q1023
Conditions at: LIPE (BOLOGNA/BORGO (A, IT) observed 2150 UTC 20 February 2020
Temperature: 5.0°C (41°F)
Dewpoint: -1.0°C (30°F) [RH = 65%]
Pressure (altimeter): 30.21 inches Hg (1023.0 mb)
Winds: from the SSW (200 degrees) at 6 MPH (5 knots; 2.6 m/s)
Visibility: 6 or more miles (10+ km)
Ceiling: ceiling and visibility are OK
Clouds: unknown
Weather: no significant weather observed at this time

METAR text: LIPE 202120Z 20007KT CAVOK 06/M00 Q1023
Conditions at: LIPE (BOLOGNA/BORGO (A, IT) observed 2120 UTC 20 February 2020
Temperature: 6.0°C (43°F)
Dewpoint: 0.0°C (32°F) [RH = 65%]
Pressure (altimeter): 30.21 inches Hg (1023.0 mb)
Winds: from the SSW (200 degrees) at 8 MPH (7 knots; 3.6 m/s)
Visibility: 6 or more miles (10+ km)
Ceiling: ceiling and visibility are OK
Clouds: unknown
Weather: no significant weather observed at this time

Forecast for: LIPE (BOLOGNA/BORGO (A, IT)
Text: TAF LIPE 201700Z 2018/2118 VRB05KT CAVOK
Forecast period: 1800 UTC 20 February 2020 to 1800 UTC 21 February 2020
Forecast type: FROM: standard forecast or significant change
Winds: variable direction winds at 6 MPH (5 knots; 2.6 m/s)
Visibility: 6 or more miles 10+ km)
Ceiling: unknown
Clouds: missing
Weather: NSW  (no significant weather)

 AIRPORT MAP

 RUNWAY INFORMATION
Runway 12 Runway length 9186 ft Runway width 150 ft
Runway elevation 120 ft Runway displaced threshold 1007 ft Runway heading 117
Runway 30 Runway length 9186 ft Runway width 150 ft
Runway elevation 120 ft Runway displaced threshold 1188 ft Runway heading 297

 AIRPORT FREQUENCIES
Type APP Name APP Frequency 120.1 MHZ
Type ATIS Name ATIS Frequency 134.875 MHZ
Type GND Name GND Frequency 129.925 MHZ
Type TWR Name TWR Frequency 120.8 MHZ

 AIRPORT NEAR NAVIGATION AIDS
Type VOR-DME Name Bologna Frequency 112200 KHZ
Type NDB Name Bologna Frequency 413 KHZ



Powered by Virtual Airlines Manager [v2.6.2]